sensor_id;sensor_type;location;lat;lon;timestamp;temperature;humidity
22984;DHT22;11658;48.908;9.140;2023-06-22T04:02:04;19.50;99.90
22984;DHT22;11658;48.908;9.140;2023-06-22T04:04:29;19.50;99.90
22984;DHT22;11658;48.908;9.140;2023-06-22T04:06:55;19.50;99.90
22984;DHT22;11658;48.908;9.140;2023-06-22T04:09:21;19.60;99.90
22984;DHT22;11658;48.908;9.140;2023-06-22T04:11:47;19.60;99.90
22984;DHT22;11658;48.908;9.140;2023-06-22T04:14:13;19.70;99.90
22984;DHT22;11658;48.908;9.140;2023-06-22T04:16:38;19.80;99.90
22984;DHT22;11658;48.908;9.140;2023-06-22T04:19:04;19.90;99.90
22984;DHT22;11658;48.908;9.140;2023-06-22T04:21:29;19.90;99.90
22984;DHT22;11658;48.908;9.140;2023-06-22T04:23:55;20.00;99.90
22984;DHT22;11658;48.908;9.140;2023-06-22T04:26:21;20.00;99.90
22984;DHT22;11658;48.908;9.140;2023-06-22T04:28:47;20.10;99.90
22984;DHT22;11658;48.908;9.140;2023-06-22T04:31:17;20.30;99.90
22984;DHT22;11658;48.908;9.140;2023-06-22T04:33:43;20.70;99.90
22984;DHT22;11658;48.908;9.140;2023-06-22T04:36:09;21.30;99.90
22984;DHT22;11658;48.908;9.140;2023-06-22T04:38:38;21.80;99.90
22984;DHT22;11658;48.908;9.140;2023-06-22T04:41:04;22.10;99.90
22984;DHT22;11658;48.908;9.140;2023-06-22T04:43:30;22.40;99.90
22984;DHT22;11658;48.908;9.140;2023-06-22T04:45:56;22.70;99.90
22984;DHT22;11658;48.908;9.140;2023-06-22T04:48:29;22.90;99.90
22984;DHT22;11658;48.908;9.140;2023-06-22T04:51:01;23.10;99.90
22984;DHT22;11658;48.908;9.140;2023-06-22T04:53:29;23.20;99.90
22984;DHT22;11658;48.908;9.140;2023-06-22T04:55:55;23.60;99.90
22984;DHT22;11658;48.908;9.140;2023-06-22T04:58:21;23.70;99.90
22984;DHT22;11658;48.908;9.140;2023-06-22T05:00:47;24.00;99.90
22984;DHT22;11658;48.908;9.140;2023-06-22T05:03:13;24.60;99.90
22984;DHT22;11658;48.908;9.140;2023-06-22T05:05:38;24.90;99.90
22984;DHT22;11658;48.908;9.140;2023-06-22T05:08:04;25.30;99.90
22984;DHT22;11658;48.908;9.140;2023-06-22T05:10:32;25.50;99.90
22984;DHT22;11658;48.908;9.140;2023-06-22T05:12:58;25.60;99.90
22984;DHT22;11658;48.908;9.140;2023-06-22T05:15:24;25.50;99.90
22984;DHT22;11658;48.908;9.140;2023-06-22T05:17:53;25.80;99.90
22984;DHT22;11658;48.908;9.140;2023-06-22T05:20:19;25.60;99.90
22984;DHT22;11658;48.908;9.140;2023-06-22T05:22:44;26.00;99.90
22984;DHT22;11658;48.908;9.140;2023-06-22T05:25:11;26.50;99.90
22984;DHT22;11658;48.908;9.140;2023-06-22T05:27:37;26.50;99.90
22984;DHT22;11658;48.908;9.140;2023-06-22T05:30:09;26.10;99.90
22984;DHT22;11658;48.908;9.140;2023-06-22T05:32:35;25.80;99.90
22984;DHT22;11658;48.908;9.140;2023-06-22T05:35:02;26.10;99.90
22984;DHT22;11658;48.908;9.140;2023-06-22T05:37:28;26.10;99.90
22984;DHT22;11658;48.908;9.140;2023-06-22T05:39:54;26.50;99.90
22984;DHT22;11658;48.908;9.140;2023-06-22T05:42:21;27.40;99.90
22984;DHT22;11658;48.908;9.140;2023-06-22T05:44:46;28.30;99.90
22984;DHT22;11658;48.908;9.140;2023-06-22T05:47:12;28.70;99.90
22984;DHT22;11658;48.908;9.140;2023-06-22T05:49:38;29.20;99.90
22984;DHT22;11658;48.908;9.140;2023-06-22T05:52:04;29.80;99.90
22984;DHT22;11658;48.908;9.140;2023-06-22T05:54:29;29.50;99.90
22984;DHT22;11658;48.908;9.140;2023-06-22T06:00:05;27.40;99.90
22984;DHT22;11658;48.908;9.140;2023-06-22T06:02:35;26.50;99.90
22984;DHT22;11658;48.908;9.140;2023-06-22T06:05:01;26.20;99.90
22984;DHT22;11658;48.908;9.140;2023-06-22T06:07:28;26.80;99.90
22984;DHT22;11658;48.908;9.140;2023-06-22T06:09:55;27.40;99.90
22984;DHT22;11658;48.908;9.140;2023-06-22T06:12:20;27.90;99.90
22984;DHT22;11658;48.908;9.140;2023-06-22T06:14:46;28.10;99.90
22984;DHT22;11658;48.908;9.140;2023-06-22T06:17:12;28.60;99.90
22984;DHT22;11658;48.908;9.140;2023-06-22T06:19:38;30.20;99.90
22984;DHT22;11658;48.908;9.140;2023-06-22T06:22:04;31.10;99.90
22984;DHT22;11658;48.908;9.140;2023-06-22T06:24:29;31.20;99.90
22984;DHT22;11658;48.908;9.140;2023-06-22T06:26:55;30.10;99.90
22984;DHT22;11658;48.908;9.140;2023-06-22T06:29:20;29.70;99.90
22984;DHT22;11658;48.908;9.140;2023-06-22T06:31:46;29.90;99.90
22984;DHT22;11658;48.908;9.140;2023-06-22T06:34:12;30.40;99.90
22984;DHT22;11658;48.908;9.140;2023-06-22T06:36:38;31.00;99.90
22984;DHT22;11658;48.908;9.140;2023-06-22T06:39:03;31.10;99.90
22984;DHT22;11658;48.908;9.140;2023-06-22T06:41:29;31.50;99.90
22984;DHT22;11658;48.908;9.140;2023-06-22T06:43:54;31.10;99.90
22984;DHT22;11658;48.908;9.140;2023-06-22T06:46:20;30.80;99.90
22984;DHT22;11658;48.908;9.140;2023-06-22T06:48:45;30.20;99.90
22984;DHT22;11658;48.908;9.140;2023-06-22T06:51:11;30.10;99.90
22984;DHT22;11658;48.908;9.140;2023-06-22T06:53:38;30.00;99.90
22984;DHT22;11658;48.908;9.140;2023-06-22T06:56:04;28.70;99.90
22984;DHT22;11658;48.908;9.140;2023-06-22T06:58:31;27.80;99.90
22984;DHT22;11658;48.908;9.140;2023-06-22T07:00:56;27.30;99.90
22984;DHT22;11658;48.908;9.140;2023-06-22T07:03:22;27.00;99.90
22984;DHT22;11658;48.908;9.140;2023-06-22T07:05:48;26.70;99.90
22984;DHT22;11658;48.908;9.140;2023-06-22T07:08:13;26.30;99.90
22984;DHT22;11658;48.908;9.140;2023-06-22T07:10:39;26.10;99.90
22984;DHT22;11658;48.908;9.140;2023-06-22T07:13:04;26.00;99.90
22984;DHT22;11658;48.908;9.140;2023-06-22T07:15:30;26.30;99.90
22984;DHT22;11658;48.908;9.140;2023-06-22T07:17:55;26.50;99.90
22984;DHT22;11658;48.908;9.140;2023-06-22T07:20:21;26.50;99.90
22984;DHT22;11658;48.908;9.140;2023-06-22T07:22:46;26.20;99.90
22984;DHT22;11658;48.908;9.140;2023-06-22T07:25:12;26.10;99.90
22984;DHT22;11658;48.908;9.140;2023-06-22T07:27:43;25.90;99.90
22984;DHT22;11658;48.908;9.140;2023-06-22T07:30:09;25.90;99.90
22984;DHT22;11658;48.908;9.140;2023-06-22T07:32:35;25.90;99.90
22984;DHT22;11658;48.908;9.140;2023-06-22T07:35:01;25.90;99.90
22984;DHT22;11658;48.908;9.140;2023-06-22T07:37:28;25.90;99.90
22984;DHT22;11658;48.908;9.140;2023-06-22T07:39:57;26.00;99.90
22984;DHT22;11658;48.908;9.140;2023-06-22T07:42:26;26.10;99.90
22984;DHT22;11658;48.908;9.140;2023-06-22T07:44:52;26.20;99.90
22984;DHT22;11658;48.908;9.140;2023-06-22T07:47:18;26.00;99.90
22984;DHT22;11658;48.908;9.140;2023-06-22T07:49:45;26.10;99.90
22984;DHT22;11658;48.908;9.140;2023-06-22T07:52:11;26.10;99.90
22984;DHT22;11658;48.908;9.140;2023-06-22T07:54:36;26.00;99.90
22984;DHT22;11658;48.908;9.140;2023-06-22T07:57:02;25.90;99.90
22984;DHT22;11658;48.908;9.140;2023-06-22T07:59:28;26.20;99.90
22984;DHT22;11658;48.908;9.140;2023-06-22T08:01:54;26.50;99.90
22984;DHT22;11658;48.908;9.140;2023-06-22T08:04:20;26.60;99.90
22984;DHT22;11658;48.908;9.140;2023-06-22T08:06:45;26.30;99.90
22984;DHT22;11658;48.908;9.140;2023-06-22T08:09:11;26.20;99.90
22984;DHT22;11658;48.908;9.140;2023-06-22T08:11:37;26.30;99.90
22984;DHT22;11658;48.908;9.140;2023-06-22T08:14:03;26.60;99.90
22984;DHT22;11658;48.908;9.140;2023-06-22T08:16:28;26.90;99.90
22984;DHT22;11658;48.908;9.140;2023-06-22T08:18:54;27.00;99.90
22984;DHT22;11658;48.908;9.140;2023-06-22T08:21:20;27.10;99.90
22984;DHT22;11658;48.908;9.140;2023-06-22T08:23:46;26.90;99.90
22984;DHT22;11658;48.908;9.140;2023-06-22T08:26:11;26.90;99.90
22984;DHT22;11658;48.908;9.140;2023-06-22T08:28:37;27.10;99.90
22984;DHT22;11658;48.908;9.140;2023-06-22T08:31:02;27.50;99.90
22984;DHT22;11658;48.908;9.140;2023-06-22T08:33:29;27.80;99.90
22984;DHT22;11658;48.908;9.140;2023-06-22T08:35:56;28.20;99.90
22984;DHT22;11658;48.908;9.140;2023-06-22T08:38:22;28.50;99.90
22984;DHT22;11658;48.908;9.140;2023-06-22T08:40:47;29.00;99.90
22984;DHT22;11658;48.908;9.140;2023-06-22T08:43:14;29.20;99.90
22984;DHT22;11658;48.908;9.140;2023-06-22T08:45:40;29.40;99.90
22984;DHT22;11658;48.908;9.140;2023-06-22T08:48:05;29.50;99.90
22984;DHT22;11658;48.908;9.140;2023-06-22T08:50:31;29.60;99.90
22984;DHT22;11658;48.908;9.140;2023-06-22T08:52:56;29.50;99.90
22984;DHT22;11658;48.908;9.140;2023-06-22T08:55:22;29.00;99.90
22984;DHT22;11658;48.908;9.140;2023-06-22T08:57:47;28.70;99.90
22984;DHT22;11658;48.908;9.140;2023-06-22T09:00:13;28.80;99.90
22984;DHT22;11658;48.908;9.140;2023-06-22T09:02:46;28.50;99.90
22984;DHT22;11658;48.908;9.140;2023-06-22T09:05:12;28.50;99.90
22984;DHT22;11658;48.908;9.140;2023-06-22T09:07:38;28.60;99.90
22984;DHT22;11658;48.908;9.140;2023-06-22T09:10:05;28.90;99.90
22984;DHT22;11658;48.908;9.140;2023-06-22T09:12:31;28.80;99.90
22984;DHT22;11658;48.908;9.140;2023-06-22T09:14:58;28.70;99.90
22984;DHT22;11658;48.908;9.140;2023-06-22T09:17:25;28.30;99.90
22984;DHT22;11658;48.908;9.140;2023-06-22T09:19:51;28.70;99.90
22984;DHT22;11658;48.908;9.140;2023-06-22T09:22:17;29.50;99.90
22984;DHT22;11658;48.908;9.140;2023-06-22T09:24:43;30.10;99.90
22984;DHT22;11658;48.908;9.140;2023-06-22T09:27:08;29.70;99.90
22984;DHT22;11658;48.908;9.140;2023-06-22T09:29:34;29.20;99.90
22984;DHT22;11658;48.908;9.140;2023-06-22T09:32:00;29.00;99.90
22984;DHT22;11658;48.908;9.140;2023-06-22T09:34:26;29.40;99.90
22984;DHT22;11658;48.908;9.140;2023-06-22T09:36:51;29.90;99.90
22984;DHT22;11658;48.908;9.140;2023-06-22T09:39:20;30.00;99.90
22984;DHT22;11658;48.908;9.140;2023-06-22T09:41:45;30.00;99.90
22984;DHT22;11658;48.908;9.140;2023-06-22T09:44:11;30.00;99.90
22984;DHT22;11658;48.908;9.140;2023-06-22T09:46:36;30.00;99.90
22984;DHT22;11658;48.908;9.140;2023-06-22T09:49:02;30.00;99.90
22984;DHT22;11658;48.908;9.140;2023-06-22T09:51:27;29.90;99.90
22984;DHT22;11658;48.908;9.140;2023-06-22T09:53:53;29.80;99.90
22984;DHT22;11658;48.908;9.140;2023-06-22T09:56:19;29.70;99.90
22984;DHT22;11658;48.908;9.140;2023-06-22T09:58:46;29.70;99.90
22984;DHT22;11658;48.908;9.140;2023-06-22T10:01:12;29.70;99.90
22984;DHT22;11658;48.908;9.140;2023-06-22T10:03:40;29.90;99.90
22984;DHT22;11658;48.908;9.140;2023-06-22T10:06:06;30.50;99.90
22984;DHT22;11658;48.908;9.140;2023-06-22T10:08:32;31.00;99.90
22984;DHT22;11658;48.908;9.140;2023-06-22T10:10:58;30.80;99.90
22984;DHT22;11658;48.908;9.140;2023-06-22T10:13:23;30.70;99.90
22984;DHT22;11658;48.908;9.140;2023-06-22T10:15:49;30.80;99.90
22984;DHT22;11658;48.908;9.140;2023-06-22T10:18:20;30.60;99.90
22984;DHT22;11658;48.908;9.140;2023-06-22T10:20:48;30.80;99.90
22984;DHT22;11658;48.908;9.140;2023-06-22T10:23:14;31.20;99.90
22984;DHT22;11658;48.908;9.140;2023-06-22T10:25:40;31.40;99.90
22984;DHT22;11658;48.908;9.140;2023-06-22T10:28:05;31.30;99.90
22984;DHT22;11658;48.908;9.140;2023-06-22T10:30:31;31.30;99.90
22984;DHT22;11658;48.908;9.140;2023-06-22T10:32:56;31.10;99.90
22984;DHT22;11658;48.908;9.140;2023-06-22T10:35:22;31.20;99.90
22984;DHT22;11658;48.908;9.140;2023-06-22T10:37:49;31.40;99.90
22984;DHT22;11658;48.908;9.140;2023-06-22T10:40:15;31.30;99.90
22984;DHT22;11658;48.908;9.140;2023-06-22T10:42:42;31.30;99.90
22984;DHT22;11658;48.908;9.140;2023-06-22T10:45:08;31.00;99.90
22984;DHT22;11658;48.908;9.140;2023-06-22T10:47:34;31.00;99.90
22984;DHT22;11658;48.908;9.140;2023-06-22T10:50:00;31.40;99.90
22984;DHT22;11658;48.908;9.140;2023-06-22T10:52:26;31.60;99.90
22984;DHT22;11658;48.908;9.140;2023-06-22T10:54:51;31.70;99.90
22984;DHT22;11658;48.908;9.140;2023-06-22T10:57:18;31.60;99.90
22984;DHT22;11658;48.908;9.140;2023-06-22T10:59:43;31.40;99.90
22984;DHT22;11658;48.908;9.140;2023-06-22T11:02:09;31.60;99.90
22984;DHT22;11658;48.908;9.140;2023-06-22T11:04:34;32.00;99.90
22984;DHT22;11658;48.908;9.140;2023-06-22T11:07:00;32.00;99.90
22984;DHT22;11658;48.908;9.140;2023-06-22T11:09:26;31.90;99.90
22984;DHT22;11658;48.908;9.140;2023-06-22T11:11:52;32.10;99.90
22984;DHT22;11658;48.908;9.140;2023-06-22T11:14:21;32.50;99.90
22984;DHT22;11658;48.908;9.140;2023-06-22T11:16:47;32.70;99.90
22984;DHT22;11658;48.908;9.140;2023-06-22T11:19:13;32.80;99.90
22984;DHT22;11658;48.908;9.140;2023-06-22T11:21:39;32.30;99.90
22984;DHT22;11658;48.908;9.140;2023-06-22T11:24:05;32.30;99.90
22984;DHT22;11658;48.908;9.140;2023-06-22T11:26:30;32.70;99.90
22984;DHT22;11658;48.908;9.140;2023-06-22T11:28:57;33.10;99.90
22984;DHT22;11658;48.908;9.140;2023-06-22T11:31:23;33.30;99.90
22984;DHT22;11658;48.908;9.140;2023-06-22T11:33:49;33.50;99.90
22984;DHT22;11658;48.908;9.140;2023-06-22T11:36:15;33.60;99.90
22984;DHT22;11658;48.908;9.140;2023-06-22T11:38:41;33.60;99.90
22984;DHT22;11658;48.908;9.140;2023-06-22T11:41:08;33.70;99.90
22984;DHT22;11658;48.908;9.140;2023-06-22T11:43:34;33.20;99.90
22984;DHT22;11658;48.908;9.140;2023-06-22T11:46:03;32.70;99.90
22984;DHT22;11658;48.908;9.140;2023-06-22T11:48:29;32.50;99.90
22984;DHT22;11658;48.908;9.140;2023-06-22T11:50:55;32.50;99.90
22984;DHT22;11658;48.908;9.140;2023-06-22T11:53:21;32.10;99.90
22984;DHT22;11658;48.908;9.140;2023-06-22T11:55:47;32.10;99.90
22984;DHT22;11658;48.908;9.140;2023-06-22T11:58:14;32.00;99.90
22984;DHT22;11658;48.908;9.140;2023-06-22T12:00:39;32.00;99.90
22984;DHT22;11658;48.908;9.140;2023-06-22T12:03:05;32.20;99.90
22984;DHT22;11658;48.908;9.140;2023-06-22T12:05:31;32.10;99.90
22984;DHT22;11658;48.908;9.140;2023-06-22T12:07:56;32.00;99.90
22984;DHT22;11658;48.908;9.140;2023-06-22T12:10:22;32.00;99.90
22984;DHT22;11658;48.908;9.140;2023-06-22T12:12:48;32.00;99.90
22984;DHT22;11658;48.908;9.140;2023-06-22T12:15:14;31.80;99.90
22984;DHT22;11658;48.908;9.140;2023-06-22T12:17:40;31.70;99.90
22984;DHT22;11658;48.908;9.140;2023-06-22T12:20:06;31.70;99.90
22984;DHT22;11658;48.908;9.140;2023-06-22T12:22:33;31.70;99.90
22984;DHT22;11658;48.908;9.140;2023-06-22T12:24:58;31.80;99.90
22984;DHT22;11658;48.908;9.140;2023-06-22T12:27:25;32.00;99.90
22984;DHT22;11658;48.908;9.140;2023-06-22T12:29:51;32.20;99.90
22984;DHT22;11658;48.908;9.140;2023-06-22T12:32:16;32.40;99.90
22984;DHT22;11658;48.908;9.140;2023-06-22T12:34:42;32.50;99.90
22984;DHT22;11658;48.908;9.140;2023-06-22T12:37:08;32.60;99.90
22984;DHT22;11658;48.908;9.140;2023-06-22T12:39:34;32.50;99.90
22984;DHT22;11658;48.908;9.140;2023-06-22T12:42:00;32.50;99.90
22984;DHT22;11658;48.908;9.140;2023-06-22T12:44:26;32.50;99.90
22984;DHT22;11658;48.908;9.140;2023-06-22T12:46:51;32.40;99.90
22984;DHT22;11658;48.908;9.140;2023-06-22T12:49:17;32.50;99.90
22984;DHT22;11658;48.908;9.140;2023-06-22T12:51:43;32.40;99.90
22984;DHT22;11658;48.908;9.140;2023-06-22T12:54:10;32.50;99.90
22984;DHT22;11658;48.908;9.140;2023-06-22T12:56:36;32.70;99.90
22984;DHT22;11658;48.908;9.140;2023-06-22T12:59:02;32.90;99.90
22984;DHT22;11658;48.908;9.140;2023-06-22T13:01:28;33.20;99.90
22984;DHT22;11658;48.908;9.140;2023-06-22T13:03:55;33.40;99.90
22984;DHT22;11658;48.908;9.140;2023-06-22T13:06:21;33.50;99.90
22984;DHT22;11658;48.908;9.140;2023-06-22T13:08:46;33.60;99.90
22984;DHT22;11658;48.908;9.140;2023-06-22T13:11:12;33.50;99.90
22984;DHT22;11658;48.908;9.140;2023-06-22T13:13:38;33.30;99.90
22984;DHT22;11658;48.908;9.140;2023-06-22T13:16:04;33.20;99.90
22984;DHT22;11658;48.908;9.140;2023-06-22T13:18:30;32.90;99.90
22984;DHT22;11658;48.908;9.140;2023-06-22T13:20:56;32.80;99.90
22984;DHT22;11658;48.908;9.140;2023-06-22T13:23:21;32.70;99.90
22984;DHT22;11658;48.908;9.140;2023-06-22T13:25:47;32.70;99.90
22984;DHT22;11658;48.908;9.140;2023-06-22T13:28:13;32.50;99.90
22984;DHT22;11658;48.908;9.140;2023-06-22T13:30:42;32.40;99.90
22984;DHT22;11658;48.908;9.140;2023-06-22T13:33:09;32.40;99.90
22984;DHT22;11658;48.908;9.140;2023-06-22T13:35:34;32.50;99.90
22984;DHT22;11658;48.908;9.140;2023-06-22T13:38:03;32.80;99.90
22984;DHT22;11658;48.908;9.140;2023-06-22T13:40:29;32.90;99.90
22984;DHT22;11658;48.908;9.140;2023-06-22T13:42:55;33.10;99.90
22984;DHT22;11658;48.908;9.140;2023-06-22T13:45:21;33.50;99.90
22984;DHT22;11658;48.908;9.140;2023-06-22T13:47:46;33.80;99.90
22984;DHT22;11658;48.908;9.140;2023-06-22T13:50:12;34.20;99.90
22984;DHT22;11658;48.908;9.140;2023-06-22T13:52:38;34.60;99.90
22984;DHT22;11658;48.908;9.140;2023-06-22T13:55:05;34.90;99.90
22984;DHT22;11658;48.908;9.140;2023-06-22T13:57:32;34.90;99.90
22984;DHT22;11658;48.908;9.140;2023-06-22T13:59:59;34.90;99.90
22984;DHT22;11658;48.908;9.140;2023-06-22T14:02:26;35.00;99.90
22984;DHT22;11658;48.908;9.140;2023-06-22T14:04:51;35.10;99.90
22984;DHT22;11658;48.908;9.140;2023-06-22T14:07:17;34.90;99.90
22984;DHT22;11658;48.908;9.140;2023-06-22T14:09:44;34.80;99.90
22984;DHT22;11658;48.908;9.140;2023-06-22T14:12:10;34.70;99.90
22984;DHT22;11658;48.908;9.140;2023-06-22T14:14:36;34.60;99.90
22984;DHT22;11658;48.908;9.140;2023-06-22T14:17:03;34.50;99.90
22984;DHT22;11658;48.908;9.140;2023-06-22T14:19:28;34.20;99.90
22984;DHT22;11658;48.908;9.140;2023-06-22T14:21:54;34.40;99.90
22984;DHT22;11658;48.908;9.140;2023-06-22T14:24:19;34.20;99.90
22984;DHT22;11658;48.908;9.140;2023-06-22T14:26:45;34.20;99.90
22984;DHT22;11658;48.908;9.140;2023-06-22T14:29:11;34.00;99.90
22984;DHT22;11658;48.908;9.140;2023-06-22T14:31:36;33.80;99.90
22984;DHT22;11658;48.908;9.140;2023-06-22T14:34:02;33.70;99.90
22984;DHT22;11658;48.908;9.140;2023-06-22T14:36:31;33.60;99.90
22984;DHT22;11658;48.908;9.140;2023-06-22T14:38:57;33.30;99.90
22984;DHT22;11658;48.908;9.140;2023-06-22T14:41:22;33.30;99.90
22984;DHT22;11658;48.908;9.140;2023-06-22T14:43:49;33.10;99.90
22984;DHT22;11658;48.908;9.140;2023-06-22T14:46:17;32.80;99.90
22984;DHT22;11658;48.908;9.140;2023-06-22T14:48:43;32.70;99.90
22984;DHT22;11658;48.908;9.140;2023-06-22T14:51:10;32.70;99.90
22984;DHT22;11658;48.908;9.140;2023-06-22T14:53:36;32.90;99.90
22984;DHT22;11658;48.908;9.140;2023-06-22T14:56:02;32.80;99.90
22984;DHT22;11658;48.908;9.140;2023-06-22T14:58:31;32.50;99.90
22984;DHT22;11658;48.908;9.140;2023-06-22T15:01:03;32.50;99.90
22984;DHT22;11658;48.908;9.140;2023-06-22T15:03:30;32.40;99.90
22984;DHT22;11658;48.908;9.140;2023-06-22T15:05:58;32.50;99.90
22984;DHT22;11658;48.908;9.140;2023-06-22T15:08:24;32.60;99.90
22984;DHT22;11658;48.908;9.140;2023-06-22T15:10:50;32.60;98.80
22984;DHT22;11658;48.908;9.140;2023-06-22T15:13:16;32.50;98.30
22984;DHT22;11658;48.908;9.140;2023-06-22T15:15:43;32.50;98.50
22984;DHT22;11658;48.908;9.140;2023-06-22T15:18:08;32.60;98.10
22984;DHT22;11658;48.908;9.140;2023-06-22T15:20:34;32.60;97.20
22984;DHT22;11658;48.908;9.140;2023-06-22T15:22:59;32.60;97.60
22984;DHT22;11658;48.908;9.140;2023-06-22T15:25:25;32.80;98.60
22984;DHT22;11658;48.908;9.140;2023-06-22T15:27:51;32.90;98.50
22984;DHT22;11658;48.908;9.140;2023-06-22T15:30:16;33.20;97.70
22984;DHT22;11658;48.908;9.140;2023-06-22T15:32:45;33.20;97.90
22984;DHT22;11658;48.908;9.140;2023-06-22T15:35:12;33.20;97.00
22984;DHT22;11658;48.908;9.140;2023-06-22T15:37:38;33.30;96.60
22984;DHT22;11658;48.908;9.140;2023-06-22T15:40:04;33.20;96.40
22984;DHT22;11658;48.908;9.140;2023-06-22T15:42:30;33.20;96.00
22984;DHT22;11658;48.908;9.140;2023-06-22T15:44:56;33.10;95.50
22984;DHT22;11658;48.908;9.140;2023-06-22T15:47:21;32.90;95.00
22984;DHT22;11658;48.908;9.140;2023-06-22T15:49:50;32.90;95.50
22984;DHT22;11658;48.908;9.140;2023-06-22T15:52:17;32.70;95.50
22984;DHT22;11658;48.908;9.140;2023-06-22T15:54:44;32.50;95.60
22984;DHT22;11658;48.908;9.140;2023-06-22T15:57:10;32.40;95.80
22984;DHT22;11658;48.908;9.140;2023-06-22T15:59:42;32.20;96.20
22984;DHT22;11658;48.908;9.140;2023-06-22T16:02:09;32.20;96.20
22984;DHT22;11658;48.908;9.140;2023-06-22T16:04:35;32.20;96.20
22984;DHT22;11658;48.908;9.140;2023-06-22T16:07:01;32.20;95.90
22984;DHT22;11658;48.908;9.140;2023-06-22T16:09:27;32.00;96.20
22984;DHT22;11658;48.908;9.140;2023-06-22T16:11:54;31.90;96.10
22984;DHT22;11658;48.908;9.140;2023-06-22T16:14:20;31.90;96.40
22984;DHT22;11658;48.908;9.140;2023-06-22T16:16:46;32.00;96.60
22984;DHT22;11658;48.908;9.140;2023-06-22T16:19:12;32.20;97.00
22984;DHT22;11658;48.908;9.140;2023-06-22T16:21:37;32.30;96.80
22984;DHT22;11658;48.908;9.140;2023-06-22T16:24:03;32.30;96.70
22984;DHT22;11658;48.908;9.140;2023-06-22T16:26:33;32.40;96.80
22984;DHT22;11658;48.908;9.140;2023-06-22T16:29:02;32.40;97.10
22984;DHT22;11658;48.908;9.140;2023-06-22T16:31:28;32.10;97.30
22984;DHT22;11658;48.908;9.140;2023-06-22T16:33:53;32.00;97.40
22984;DHT22;11658;48.908;9.140;2023-06-22T16:36:19;31.80;97.40
22984;DHT22;11658;48.908;9.140;2023-06-22T16:38:45;31.60;97.20
22984;DHT22;11658;48.908;9.140;2023-06-22T16:41:11;31.60;97.10
22984;DHT22;11658;48.908;9.140;2023-06-22T16:43:38;31.60;97.40
22984;DHT22;11658;48.908;9.140;2023-06-22T16:46:04;31.70;96.70
22984;DHT22;11658;48.908;9.140;2023-06-22T16:48:30;32.00;96.70
22984;DHT22;11658;48.908;9.140;2023-06-22T16:50:56;32.10;96.50
22984;DHT22;11658;48.908;9.140;2023-06-22T16:53:21;32.90;96.50
22984;DHT22;11658;48.908;9.140;2023-06-22T16:55:50;33.40;95.40
22984;DHT22;11658;48.908;9.140;2023-06-22T16:58:19;33.40;95.10
22984;DHT22;11658;48.908;9.140;2023-06-22T17:00:47;32.90;95.50
22984;DHT22;11658;48.908;9.140;2023-06-22T17:03:29;32.20;95.60
22984;DHT22;11658;48.908;9.140;2023-06-22T17:05:58;31.80;95.50
22984;DHT22;11658;48.908;9.140;2023-06-22T17:08:28;31.30;94.80
22984;DHT22;11658;48.908;9.140;2023-06-22T17:10:55;31.00;95.50
22984;DHT22;11658;48.908;9.140;2023-06-22T17:13:21;30.70;96.10
22984;DHT22;11658;48.908;9.140;2023-06-22T17:15:48;30.30;96.60
22984;DHT22;11658;48.908;9.140;2023-06-22T17:18:18;30.30;97.30
22984;DHT22;11658;48.908;9.140;2023-06-22T17:20:45;30.10;97.70
22984;DHT22;11658;48.908;9.140;2023-06-22T17:23:10;29.90;98.40
22984;DHT22;11658;48.908;9.140;2023-06-22T17:25:36;29.80;98.90
22984;DHT22;11658;48.908;9.140;2023-06-22T17:28:03;29.70;99.50
22984;DHT22;11658;48.908;9.140;2023-06-22T17:30:29;29.60;99.70
22984;DHT22;11658;48.908;9.140;2023-06-22T17:32:55;29.50;99.90
22984;DHT22;11658;48.908;9.140;2023-06-22T17:35:20;29.40;99.90
22984;DHT22;11658;48.908;9.140;2023-06-22T17:37:54;29.30;99.90
22984;DHT22;11658;48.908;9.140;2023-06-22T17:40:22;29.30;99.90
22984;DHT22;11658;48.908;9.140;2023-06-22T17:43:00;29.20;99.90
22984;DHT22;11658;48.908;9.140;2023-06-22T17:45:28;29.10;99.90
22984;DHT22;11658;48.908;9.140;2023-06-22T17:47:54;29.00;99.90
22984;DHT22;11658;48.908;9.140;2023-06-22T17:50:24;28.90;99.90
22984;DHT22;11658;48.908;9.140;2023-06-22T17:52:50;28.70;99.90
22984;DHT22;11658;48.908;9.140;2023-06-22T17:55:20;28.50;99.90
22984;DHT22;11658;48.908;9.140;2023-06-22T17:57:49;28.30;99.90
22984;DHT22;11658;48.908;9.140;2023-06-22T18:00:19;28.10;99.90
22984;DHT22;11658;48.908;9.140;2023-06-22T18:02:44;28.00;99.90
22984;DHT22;11658;48.908;9.140;2023-06-22T18:05:10;27.80;99.90
22984;DHT22;11658;48.908;9.140;2023-06-22T18:07:37;27.70;99.90
22984;DHT22;11658;48.908;9.140;2023-06-22T18:10:07;27.60;99.90
22984;DHT22;11658;48.908;9.140;2023-06-22T18:12:34;27.50;99.90
22984;DHT22;11658;48.908;9.140;2023-06-22T18:15:00;27.50;99.90
22984;DHT22;11658;48.908;9.140;2023-06-22T18:17:26;27.40;99.90
22984;DHT22;11658;48.908;9.140;2023-06-22T18:19:55;27.40;99.90
22984;DHT22;11658;48.908;9.140;2023-06-22T18:22:21;27.40;99.90
22984;DHT22;11658;48.908;9.140;2023-06-22T18:24:49;27.30;99.90
22984;DHT22;11658;48.908;9.140;2023-06-22T18:27:15;27.20;99.90
22984;DHT22;11658;48.908;9.140;2023-06-22T18:29:42;27.20;99.90
22984;DHT22;11658;48.908;9.140;2023-06-22T18:32:13;27.10;99.90
22984;DHT22;11658;48.908;9.140;2023-06-22T18:34:39;27.00;99.90
22984;DHT22;11658;48.908;9.140;2023-06-22T18:37:08;26.90;99.90
22984;DHT22;11658;48.908;9.140;2023-06-22T18:39:37;26.80;99.90
22984;DHT22;11658;48.908;9.140;2023-06-22T18:42:04;26.70;99.90
22984;DHT22;11658;48.908;9.140;2023-06-22T18:44:32;26.50;99.90
22984;DHT22;11658;48.908;9.140;2023-06-22T18:47:02;26.50;99.90
22984;DHT22;11658;48.908;9.140;2023-06-22T18:49:32;26.30;99.90
22984;DHT22;11658;48.908;9.140;2023-06-22T18:52:26;25.80;99.90
22984;DHT22;11658;48.908;9.140;2023-06-22T18:54:52;25.50;99.90
22984;DHT22;11658;48.908;9.140;2023-06-22T18:57:27;25.40;99.90
22984;DHT22;11658;48.908;9.140;2023-06-22T19:00:05;25.40;99.90
22984;DHT22;11658;48.908;9.140;2023-06-22T19:02:47;25.30;99.90
22984;DHT22;11658;48.908;9.140;2023-06-22T19:05:40;25.10;99.90
22984;DHT22;11658;48.908;9.140;2023-06-22T19:08:07;24.90;99.90
22984;DHT22;11658;48.908;9.140;2023-06-22T19:15:44;24.70;99.90
22984;DHT22;11658;48.908;9.140;2023-06-22T19:18:35;24.70;99.90
22984;DHT22;11658;48.908;9.140;2023-06-22T19:21:21;24.70;99.90
22984;DHT22;11658;48.908;9.140;2023-06-22T19:23:47;24.70;99.90
22984;DHT22;11658;48.908;9.140;2023-06-22T19:26:15;24.70;99.90
22984;DHT22;11658;48.908;9.140;2023-06-22T19:28:52;24.60;99.90
22984;DHT22;11658;48.908;9.140;2023-06-22T19:31:19;24.50;99.90
22984;DHT22;11658;48.908;9.140;2023-06-22T19:33:45;24.50;99.90
22984;DHT22;11658;48.908;9.140;2023-06-22T19:36:11;24.40;99.90